createdAt,value
2019-02-06T00:00:54.058Z,102545.70
2019-02-06T00:03:27.605Z,102540.73
2019-02-06T00:06:01.758Z,102546.00
2019-02-06T00:08:53.632Z,102536.04
2019-02-06T00:11:27.565Z,102541.51
2019-02-06T00:14:01.336Z,102536.30
2019-02-06T00:16:34.898Z,102531.08
2019-02-06T00:19:08.740Z,102536.45
2019-02-06T00:22:00.037Z,102529.39
2019-02-06T00:24:33.301Z,102533.23
2019-02-06T00:27:06.511Z,102527.59
2019-02-06T00:29:40.469Z,102525.96
2019-02-06T00:32:14.221Z,102524.58
2019-02-06T00:34:48.031Z,102514.77
2019-02-06T00:37:21.747Z,102513.84
2019-02-06T00:39:55.232Z,102515.32
2019-02-06T00:42:28.162Z,102506.42
2019-02-06T00:45:01.921Z,102511.27
2019-02-06T00:47:35.440Z,102503.77
2019-02-06T00:50:10.892Z,102502.38
2019-02-06T00:52:44.636Z,102506.98
2019-02-06T00:55:17.237Z,102504.98
2019-02-06T00:58:03.347Z,102499.41
2019-02-06T01:00:53.307Z,102499.97
2019-02-06T01:03:26.751Z,102495.92
2019-02-06T01:06:00.613Z,102498.64
2019-02-06T01:08:45.381Z,102485.80
2019-02-06T01:11:19.133Z,102494.55
2019-02-06T01:13:53.262Z,102491.89
2019-02-06T01:16:26.927Z,102485.75
2019-02-06T01:19:00.125Z,102486.42
2019-02-06T01:21:46.123Z,102487.33
2019-02-06T01:24:31.581Z,102484.41
2019-02-06T01:27:04.771Z,102494.30
2019-02-06T01:29:49.881Z,102490.41
2019-02-06T01:32:41.085Z,102487.83
2019-02-06T01:35:14.779Z,102490.86
2019-02-06T01:38:00.477Z,102480.58
2019-02-06T01:40:45.951Z,102483.64
2019-02-06T01:43:31.622Z,102482.23
2019-02-06T01:46:04.758Z,102483.28
2019-02-06T01:48:38.917Z,102478.31
2019-02-06T01:51:12.859Z,102478.84
2019-02-06T01:53:47.085Z,102472.14
2019-02-06T01:56:20.875Z,102466.41
2019-02-06T01:58:53.023Z,102468.66
2019-02-06T02:01:27.464Z,102456.33
2019-02-06T02:04:21.780Z,102451.25
2019-02-06T02:07:07.805Z,102451.18
2019-02-06T02:09:41.731Z,102452.98
2019-02-06T02:12:16.527Z,102453.36
2019-02-06T02:14:50.317Z,102452.69
2019-02-06T02:17:24.643Z,102444.13
2019-02-06T02:19:57.520Z,102431.47
2019-02-06T02:22:31.624Z,102435.61
2019-02-06T02:25:06.218Z,102436.54
2019-02-06T02:27:40.091Z,102432.02
2019-02-06T02:30:16.449Z,102423.13
2019-02-06T02:32:50.874Z,102424.06
2019-02-06T02:35:24.632Z,102428.67
2019-02-06T02:37:58.173Z,102426.02
2019-02-06T02:40:31.673Z,102419.04
2019-02-06T02:43:05.418Z,102414.25
2019-02-06T02:45:39.161Z,102417.51
2019-02-06T02:48:23.949Z,102413.94
2019-02-06T02:51:16.600Z,102407.29
2019-02-06T02:54:07.243Z,102404.58
2019-02-06T02:56:41.326Z,102403.41
2019-02-06T02:59:16.216Z,102395.78
2019-02-06T03:02:25.694Z,102387.75
2019-02-06T03:05:03.918Z,102372.67
2019-02-06T03:07:37.573Z,102366.23
2019-02-06T03:10:11.699Z,102358.27
2019-02-06T03:12:45.559Z,102362.25
2019-02-06T03:15:30.901Z,102349.88
2019-02-06T03:18:16.691Z,102351.97
2019-02-06T03:20:50.829Z,102346.59
2019-02-06T03:23:28.792Z,102338.13
2019-02-06T03:26:02.270Z,102323.03
2019-02-06T03:28:35.994Z,102330.45
2019-02-06T03:31:10.723Z,102324.63
2019-02-06T03:34:04.990Z,102324.12
2019-02-06T03:36:40.890Z,102319.73
2019-02-06T03:39:13.908Z,102309.14
2019-02-06T03:42:04.790Z,102304.13
2019-02-06T03:44:49.642Z,102298.81
2019-02-06T03:47:41.916Z,102290.06
2019-02-06T03:50:16.485Z,102283.29
2019-02-06T03:52:51.084Z,102280.01
2019-02-06T03:55:24.835Z,102278.83
2019-02-06T03:57:58.609Z,102278.48
2019-02-06T04:00:32.662Z,102274.19
2019-02-06T04:03:04.789Z,102270.20
2019-02-06T04:05:55.485Z,102264.81
2019-02-06T04:08:40.788Z,102267.47
2019-02-06T04:11:34.667Z,102267.07
2019-02-06T04:14:09.540Z,102265.39
2019-02-06T04:16:43.806Z,102255.53
2019-02-06T04:19:17.612Z,102257.72
2019-02-06T04:21:51.358Z,102254.25
2019-02-06T04:24:24.603Z,102247.77
2019-02-06T04:26:57.787Z,102243.00
2019-02-06T04:29:49.135Z,102242.70
2019-02-06T04:32:33.801Z,102237.35
2019-02-06T04:35:19.059Z,102233.98
2019-02-06T04:37:51.578Z,102228.03
2019-02-06T04:40:26.020Z,102229.66
2019-02-06T04:43:00.150Z,102225.68
2019-02-06T04:45:51.982Z,102221.78
2019-02-06T04:48:25.889Z,102218.26
2019-02-06T04:50:59.840Z,102215.92
2019-02-06T04:53:34.074Z,102214.89
2019-02-06T04:56:23.017Z,102212.01
2019-02-06T04:58:57.659Z,102209.37
2019-02-06T05:01:43.443Z,102210.13
2019-02-06T05:04:28.428Z,102207.42
2019-02-06T05:07:19.197Z,102195.91
2019-02-06T05:09:48.766Z,102204.03
2019-02-06T05:12:35.093Z,102190.94
2019-02-06T05:15:09.794Z,102190.55
2019-02-06T05:17:56.089Z,102185.86
2019-02-06T05:20:47.412Z,102185.86
2019-02-06T05:23:32.761Z,102183.20
2019-02-06T05:26:24.136Z,102179.21
2019-02-06T05:28:58.690Z,102181.12
2019-02-06T05:31:32.788Z,102182.66
2019-02-06T05:34:08.137Z,102176.98
2019-02-06T05:37:02.823Z,102170.89
2019-02-06T05:39:36.381Z,102173.97
2019-02-06T05:42:21.881Z,102175.38
2019-02-06T05:45:14.598Z,102179.56
2019-02-06T05:47:48.844Z,102178.52
2019-02-06T05:50:33.880Z,102165.49
2019-02-06T05:53:08.668Z,102173.66
2019-02-06T05:55:42.447Z,102174.79
2019-02-06T05:58:16.989Z,102172.44
2019-02-06T06:01:02.106Z,102163.45
2019-02-06T06:03:35.191Z,102167.35
2019-02-06T06:06:07.786Z,102163.32
2019-02-06T06:08:42.903Z,102161.80
2019-02-06T06:11:15.803Z,102159.29
2019-02-06T06:13:49.151Z,102159.91
2019-02-06T06:16:44.299Z,102155.78
2019-02-06T06:19:16.640Z,102158.54
2019-02-06T06:21:49.112Z,102157.84
2019-02-06T06:53:56.735Z,102113.78
2019-02-06T06:56:30.188Z,102104.87
2019-02-06T06:59:06.310Z,102113.31
2019-02-06T07:12:16.879Z,102100.03
2019-02-06T07:14:52.331Z,102097.53
2019-02-06T07:17:26.426Z,102093.74
2019-02-06T07:20:00.547Z,102099.59
2019-02-06T07:22:45.127Z,102105.63
2019-02-06T07:25:19.356Z,102096.09
2019-02-06T07:27:54.939Z,102106.72
2019-02-06T07:30:33.479Z,102094.48
2019-02-06T07:33:07.384Z,102101.95
2019-02-06T07:35:42.940Z,102101.00
2019-02-06T07:38:23.988Z,102102.30
2019-02-06T07:41:02.488Z,102102.52
2019-02-06T07:43:37.893Z,102096.08
2019-02-06T07:46:31.279Z,102089.97
2019-02-06T07:49:03.552Z,102095.57
2019-02-06T07:51:50.529Z,102100.83
2019-02-06T07:54:24.746Z,102099.66
2019-02-06T07:56:58.809Z,102097.28
2019-02-06T07:59:32.693Z,102091.97
2019-02-06T08:02:27.326Z,102085.42
2019-02-06T08:05:18.755Z,102085.11
2019-02-06T08:07:52.357Z,102083.39
2019-02-06T08:10:28.593Z,102075.64
2019-02-06T08:13:04.295Z,102064.37
2019-02-06T08:15:38.150Z,102072.83
2019-02-06T08:18:11.170Z,102073.52
2019-02-06T08:20:45.188Z,102058.32
2019-02-06T08:23:20.085Z,102057.50
2019-02-06T08:25:53.715Z,102058.67
2019-02-06T08:28:29.202Z,102056.70
2019-02-06T08:31:03.381Z,102065.22
2019-02-06T08:33:37.568Z,102052.45
2019-02-06T08:36:12.230Z,102046.17
2019-02-06T08:39:04.430Z,102055.23
2019-02-06T08:41:37.693Z,102058.56
2019-02-06T08:44:11.573Z,102048.13
2019-02-06T08:46:45.224Z,102044.82
2019-02-06T08:49:18.885Z,102035.70
2019-02-06T08:51:52.998Z,102047.52
2019-02-06T08:54:44.240Z,102037.78
2019-02-06T08:57:18.421Z,102040.97
2019-02-06T08:59:52.865Z,102041.66
2019-02-06T09:02:28.525Z,102042.67
2019-02-06T09:05:20.111Z,102034.71
2019-02-06T09:07:54.534Z,102038.53
2019-02-06T09:10:27.701Z,102037.88
2019-02-06T09:13:18.588Z,102040.27
2019-02-06T09:15:53.506Z,102037.90
2019-02-06T09:18:39.081Z,102031.13
2019-02-06T09:21:30.868Z,102022.16
2019-02-06T09:24:08.599Z,102029.65
2019-02-06T09:26:42.325Z,102023.85
2019-02-06T09:29:16.757Z,102028.19
2019-02-06T09:31:50.224Z,102025.02
2019-02-06T09:34:23.675Z,102017.04
2019-02-06T09:37:16.478Z,102021.55
2019-02-06T09:39:52.090Z,102021.20
2019-02-06T09:42:26.199Z,102023.40
2019-02-06T09:44:59.929Z,102023.41
2019-02-06T09:47:33.652Z,102018.41
2019-02-06T09:50:12.807Z,102027.58
2019-02-06T09:52:47.392Z,102023.44
2019-02-06T09:55:20.885Z,102021.45
2019-02-06T09:57:54.500Z,102012.27
2019-02-06T10:00:46.646Z,102009.27
2019-02-06T10:03:20.679Z,102010.95
2019-02-06T10:05:53.834Z,102007.12
2019-02-06T10:08:28.515Z,102014.44
2019-02-06T10:11:02.759Z,102010.13
2019-02-06T10:13:36.849Z,102005.11
2019-02-06T10:16:30.074Z,102005.12
2019-02-06T10:19:21.374Z,101997.77
2019-02-06T10:22:09.598Z,101988.78
2019-02-06T10:25:00.747Z,101986.10
2019-02-06T10:27:34.753Z,101987.44
2019-02-06T10:30:13.294Z,101992.42
2019-02-06T10:32:47.065Z,101992.07
2019-02-06T10:35:22.001Z,101992.59
2019-02-06T10:37:57.286Z,101989.91
2019-02-06T10:40:31.353Z,101991.03
2019-02-06T10:43:03.294Z,101986.19
2019-02-06T10:45:36.864Z,101981.00
2019-02-06T10:48:12.045Z,101977.26
2019-02-06T10:50:49.392Z,101978.06
2019-02-06T10:53:36.011Z,101985.59
2019-02-06T10:56:20.623Z,101974.91
2019-02-06T10:58:54.394Z,101973.23
2019-02-06T11:01:40.095Z,101965.03
2019-02-06T11:04:37.854Z,101961.59
2019-02-06T11:07:11.861Z,101964.28
2019-02-06T11:09:47.692Z,101962.97
2019-02-06T11:12:39.400Z,101958.12
2019-02-06T11:15:31.387Z,101962.28
2019-02-06T11:18:22.777Z,101959.61
2019-02-06T11:21:00.827Z,101962.14
2019-02-06T11:23:46.013Z,101962.62
2019-02-06T11:26:21.121Z,101963.97
2019-02-06T11:29:11.895Z,101966.63
2019-02-06T11:31:46.011Z,101963.44
2019-02-06T11:34:19.996Z,101953.09
2019-02-06T11:36:54.508Z,101961.28
2019-02-06T11:39:28.589Z,101968.75
2019-02-06T11:42:02.661Z,101973.14
2019-02-06T11:44:36.977Z,101957.12
2019-02-06T11:47:10.853Z,101955.63
2019-02-06T11:50:01.670Z,101952.63
2019-02-06T11:52:52.468Z,101943.43
2019-02-06T11:55:28.958Z,101943.97
2019-02-06T11:58:01.527Z,101947.98
2019-02-06T12:00:48.507Z,101944.33
2019-02-06T12:03:23.214Z,101935.34
2019-02-06T12:05:55.444Z,101932.66
2019-02-06T12:08:31.275Z,101931.52
2019-02-06T12:11:23.544Z,101932.14
2019-02-06T12:13:57.500Z,101932.52
2019-02-06T12:16:31.756Z,101929.34
2019-02-06T12:19:23.068Z,101922.67
2019-02-06T12:22:14.928Z,101919.98
2019-02-06T12:25:02.830Z,101915.48
2019-02-06T12:27:36.455Z,101916.98
2019-02-06T12:30:18.143Z,101917.97
2019-02-06T12:32:52.672Z,101906.91
2019-02-06T12:35:26.634Z,101905.58
2019-02-06T12:38:01.338Z,101897.27
2019-02-06T12:40:46.482Z,101899.60
2019-02-06T12:43:20.134Z,101906.95
2019-02-06T12:45:54.363Z,101908.97
2019-02-06T12:48:40.890Z,101904.13
2019-02-06T12:51:14.894Z,101902.64
2019-02-06T12:53:48.410Z,101894.97
2019-02-06T12:56:21.686Z,101896.10
2019-02-06T12:59:00.003Z,101889.92
2019-02-06T13:01:40.460Z,101885.73
2019-02-06T13:04:18.718Z,101880.24
2019-02-06T13:06:53.274Z,101880.89
2019-02-06T13:09:26.671Z,101874.86
2019-02-06T13:12:27.202Z,101875.47
2019-02-06T13:14:58.879Z,101874.37
2019-02-06T13:17:38.046Z,101868.88
2019-02-06T13:20:21.132Z,101865.53
2019-02-06T13:24:12.046Z,101862.05
2019-02-06T13:26:50.633Z,101857.55
2019-02-06T13:29:26.494Z,101857.06
2019-02-06T13:43:22.423Z,101853.03
2019-02-06T13:45:56.779Z,101842.23
2019-02-06T13:48:33.572Z,101844.56
2019-02-06T13:51:16.310Z,101840.51
2019-02-06T13:53:42.626Z,101848.03
2019-02-06T13:56:16.594Z,101842.54
2019-02-06T13:58:50.697Z,101844.03
2019-02-06T14:01:33.708Z,101843.70
2019-02-06T14:04:26.818Z,101837.51
2019-02-06T14:07:01.211Z,101839.53
2019-02-06T14:09:35.413Z,101839.87
2019-02-06T14:12:08.151Z,101839.56
2019-02-06T14:14:53.728Z,101846.84
2019-02-06T14:17:28.104Z,101841.69
2019-02-06T14:20:01.241Z,101834.02
2019-02-06T14:22:33.744Z,101840.22
2019-02-06T14:25:28.664Z,101839.58
2019-02-06T14:28:45.129Z,101841.62
2019-02-06T14:31:50.402Z,101837.98
2019-02-06T14:35:03.626Z,101829.81
2019-02-06T14:38:10.617Z,101828.19
2019-02-06T14:41:20.516Z,101817.36
2019-02-06T14:44:17.758Z,101820.84
2019-02-06T14:47:30.079Z,101813.00
2019-02-06T14:50:33.552Z,101815.19
2019-02-06T14:53:36.700Z,101814.88
2019-02-06T14:56:54.024Z,101811.53
2019-02-06T15:00:18.701Z,101808.36
2019-02-06T15:03:26.537Z,101804.38
2019-02-06T15:06:36.856Z,101801.69
2019-02-06T15:09:49.453Z,101796.02
2019-02-06T15:13:03.098Z,101796.02
2019-02-06T15:16:13.347Z,101792.86
2019-02-06T15:19:14.672Z,101790.39
2019-02-06T15:22:45.300Z,101790.02
2019-02-06T15:26:21.454Z,101785.54
2019-02-06T15:29:31.827Z,101785.72
2019-02-06T15:32:32.108Z,101784.56
2019-02-06T15:35:27.079Z,101778.09
2019-02-06T15:38:40.015Z,101781.41
2019-02-06T15:42:06.024Z,101782.08
2019-02-06T15:45:04.809Z,101786.75
2019-02-06T15:48:27.688Z,101787.77
2019-02-06T15:51:45.654Z,101786.09
2019-02-06T15:54:57.208Z,101786.73
2019-02-06T15:57:57.995Z,101783.75
2019-02-06T16:00:56.724Z,101780.60
2019-02-06T16:04:30.718Z,101780.09
2019-02-06T16:08:00.385Z,101787.07
2019-02-06T16:11:01.949Z,101782.27
2019-02-06T16:13:57.156Z,101786.43
2019-02-06T16:17:14.416Z,101789.94
2019-02-06T16:20:09.342Z,101792.60
2019-02-06T16:23:36.751Z,101787.77
2019-02-06T16:26:49.365Z,101791.09
2019-02-06T16:30:16.743Z,101783.07
2019-02-06T16:33:55.219Z,101776.41
2019-02-06T16:37:20.924Z,101777.42
2019-02-06T16:40:47.195Z,101780.42
2019-02-06T16:44:07.960Z,101775.75
2019-02-06T16:47:46.119Z,101764.40
2019-02-06T16:50:31.907Z,101769.59
2019-02-06T16:53:59.953Z,101763.06
2019-02-06T16:57:10.232Z,101764.58
2019-02-06T17:00:18.949Z,101776.77
2019-02-06T17:03:10.358Z,101770.59
2019-02-06T17:06:09.169Z,101772.42
2019-02-06T17:09:23.892Z,101771.75
2019-02-06T17:13:00.778Z,101776.73
2019-02-06T17:16:20.264Z,101772.73
2019-02-06T17:19:22.170Z,101773.73
2019-02-06T17:22:56.014Z,101772.56
2019-02-06T17:26:29.502Z,101764.73
2019-02-06T17:29:28.537Z,101764.58
2019-02-06T17:33:12.495Z,101762.89
2019-02-06T17:36:51.289Z,101751.09
2019-02-06T17:39:50.763Z,101757.08
2019-02-06T17:43:16.199Z,101758.42
2019-02-06T17:46:44.443Z,101759.58
2019-02-06T17:49:58.518Z,101748.06
2019-02-06T17:53:09.409Z,101744.06
2019-02-06T17:55:43.029Z,101745.70
2019-02-06T17:58:16.521Z,101738.87
2019-02-06T18:01:17.895Z,101740.20
2019-02-06T18:04:15.816Z,101724.98
2019-02-06T18:06:51.570Z,101725.53
2019-02-06T18:09:37.072Z,101726.16
2019-02-06T18:12:26.981Z,101731.66
2019-02-06T18:14:59.661Z,101728.34
2019-02-06T18:17:33.825Z,101726.02
2019-02-06T18:20:09.484Z,101725.98
2019-02-06T18:22:45.735Z,101719.62
2019-02-06T18:25:37.818Z,101714.95
2019-02-06T18:28:19.587Z,101712.63
2019-02-06T18:30:53.474Z,101718.14
2019-02-06T18:33:28.090Z,101712.65
2019-02-06T18:36:03.609Z,101712.86
2019-02-06T18:38:56.745Z,101714.83
2019-02-06T18:41:41.738Z,101708.50
2019-02-06T18:44:14.337Z,101713.19
2019-02-06T18:46:52.515Z,101708.67
2019-02-06T18:49:27.267Z,101708.31
2019-02-06T18:52:20.522Z,101709.26
2019-02-06T18:54:55.379Z,101709.62
2019-02-06T18:57:29.540Z,101710.44
2019-02-06T19:00:32.899Z,101709.59
2019-02-06T19:03:17.129Z,101706.65
2019-02-06T19:05:51.368Z,101708.50
2019-02-06T19:08:32.232Z,101706.16
2019-02-06T19:11:07.878Z,101713.53
2019-02-06T19:13:52.958Z,101707.01
2019-02-06T19:16:28.210Z,101714.52
2019-02-06T19:19:02.435Z,101720.83
2019-02-06T19:21:37.134Z,101716.19
2019-02-06T19:24:11.885Z,101707.86
2019-02-06T19:26:45.703Z,101702.00
2019-02-06T19:29:25.494Z,101702.67
2019-02-06T19:31:59.447Z,101692.03
2019-02-06T19:34:33.941Z,101687.48
2019-02-06T19:37:09.754Z,101682.34
2019-02-06T19:39:43.720Z,101685.52
2019-02-06T19:42:17.926Z,101687.16
2019-02-06T19:44:51.500Z,101680.64
2019-02-06T19:47:28.780Z,101681.67
2019-02-06T19:50:20.272Z,101685.64
2019-02-06T19:53:10.401Z,101673.97
2019-02-06T19:56:02.846Z,101672.64
2019-02-06T19:58:41.013Z,101660.30
2019-02-06T20:01:12.830Z,101666.30
2019-02-06T20:04:05.791Z,101668.27
2019-02-06T20:06:57.227Z,101675.09
2019-02-06T20:09:36.406Z,101675.00
2019-02-06T20:12:12.425Z,101675.67
2019-02-06T20:51:46.099Z,101608.54
2019-02-06T20:54:19.854Z,101607.17
2019-02-06T20:57:13.729Z,101599.83
2019-02-06T21:02:59.331Z,101589.53
2019-02-06T21:05:33.308Z,101592.16
2019-02-06T21:08:19.187Z,101592.16
2019-02-06T21:11:17.301Z,101587.45
2019-02-06T21:24:35.772Z,101581.45
2019-02-06T21:38:28.352Z,101563.91
2019-02-06T21:41:02.188Z,101562.39
2019-02-06T21:43:43.925Z,101557.09
2019-02-06T21:46:20.344Z,101557.09
2019-02-06T21:49:05.556Z,101554.42
2019-02-06T21:51:43.760Z,101543.70
2019-02-06T21:54:22.669Z,101545.19
2019-02-06T21:57:01.063Z,101543.89
2019-02-06T21:59:35.054Z,101542.59
2019-02-06T22:02:18.247Z,101535.41
2019-02-06T22:05:04.370Z,101526.03
2019-02-06T22:07:38.802Z,101525.70
2019-02-06T22:21:42.669Z,101504.97
2019-02-06T22:37:23.945Z,101507.59
2019-02-06T22:39:58.133Z,101500.33
2019-02-06T22:42:31.893Z,101501.24
2019-02-06T22:45:06.828Z,101501.24
2019-02-06T22:47:44.246Z,101497.76
2019-02-06T22:50:19.142Z,101497.76
2019-02-06T22:52:51.278Z,101491.09
2019-02-06T22:55:24.929Z,101486.42
2019-02-06T22:58:12.796Z,101481.88
2019-02-06T23:01:19.529Z,101485.94
2019-02-06T23:03:54.241Z,101489.05
2019-02-06T23:06:28.553Z,101486.00
2019-02-06T23:09:08.763Z,101480.05
2019-02-06T23:11:42.937Z,101471.56
2019-02-06T23:14:51.051Z,101465.70
2019-02-06T23:17:25.650Z,101461.52
2019-02-06T23:20:00.508Z,101454.84
2019-02-06T23:22:36.698Z,101448.64
2019-02-06T23:25:12.313Z,101440.55
2019-02-06T23:28:04.265Z,101438.70
2019-02-06T23:30:37.955Z,101433.03
2019-02-06T23:33:14.591Z,101432.21
2019-02-06T23:35:49.029Z,101433.87
2019-02-06T23:38:23.486Z,101430.27
2019-02-06T23:40:58.958Z,101421.26
